Time;durP1;ratioP1;P1;durP2;ratioP2;P2;SDS_P1;SDS_P2;PMS_P1;PMS_P2;Temp;Humidity;BMP_temperature;BMP_pressure;BME280_temperature;BME280_humidity;BME280_pressure;Samples;Min_cycle;Max_cycle;Signal;HPM_P1;HPM_P2
2023/04/11 00:01:53;;;;;;;40.78;10.65;;;;;;;10.30;66.74;99802.16;4906558;28;20052;-52
2023/04/11 00:04:24;;;;;;;36.33;9.00;;;;;;;10.23;66.98;99790.94;4914749;28;20049;-54
2023/04/11 00:06:54;;;;;;;34.22;8.77;;;;;;;10.47;67.23;99799.16;4915533;28;20049;-55
2023/04/11 00:09:25;;;;;;;35.45;10.27;;;;;;;10.44;66.37;99812.31;4915327;28;20048;-53
2023/04/11 00:11:56;;;;;;;37.15;8.88;;;;;;;10.50;66.52;99809.53;4911007;28;20054;-55
2023/04/11 00:14:31;;;;;;;42.08;8.75;;;;;;;10.57;66.65;99787.59;4923662;28;20045;-52
2023/04/11 00:17:08;;;;;;;45.28;9.05;;;;;;;10.79;66.38;99796.63;4931277;28;20049;-56
2023/04/11 00:19:39;;;;;;;46.63;9.18;;;;;;;10.85;65.20;99805.22;4921189;28;20054;-52
2023/04/11 00:22:10;;;;;;;38.00;8.77;;;;;;;11.00;65.96;99794.38;4930872;28;20044;-55
2023/04/11 00:24:41;;;;;;;40.85;8.73;;;;;;;11.01;65.09;99793.50;4931376;28;20470;-55
2023/04/11 00:27:11;;;;;;;47.50;9.82;;;;;;;11.20;64.83;99794.72;4922181;28;20074;-52
2023/04/11 00:29:42;;;;;;;33.33;8.07;;;;;;;11.31;64.75;99793.59;4922800;28;20741;-54
2023/04/11 00:32:14;;;;;;;33.45;7.47;;;;;;;11.29;63.50;99780.53;4917971;28;20114;-54
2023/04/11 00:34:45;;;;;;;38.05;7.57;;;;;;;11.39;63.95;99789.00;4916815;28;20174;-55
2023/04/11 00:37:16;;;;;;;38.25;8.05;;;;;;;11.39;63.66;99781.16;4917269;28;20067;-54
2023/04/11 00:39:49;;;;;;;35.67;7.85;;;;;;;11.29;64.36;99795.38;4920894;28;20068;-55
2023/04/11 00:42:20;;;;;;;33.78;7.65;;;;;;;11.10;63.78;99806.31;4918322;28;20049;-53
2023/04/11 00:44:51;;;;;;;41.28;7.57;;;;;;;10.99;64.41;99788.28;4916883;28;20415;-54
2023/04/11 00:47:23;;;;;;;31.63;7.30;;;;;;;11.06;64.85;99804.69;4916364;28;20040;-54
2023/04/11 00:49:53;;;;;;;29.42;6.43;;;;;;;11.07;64.71;99816.84;4914464;28;20072;-51
2023/04/11 00:52:24;;;;;;;31.40;6.55;;;;;;;11.13;65.02;99802.75;4914197;28;20119;-52
2023/04/11 00:54:55;;;;;;;38.15;7.38;;;;;;;11.10;65.13;99795.84;4914438;28;20147;-51
2023/04/11 00:57:26;;;;;;;28.65;6.97;;;;;;;11.32;65.28;99795.28;4914415;28;20061;-54
2023/04/11 00:59:57;;;;;;;31.77;7.13;;;;;;;11.46;65.01;99814.09;4901037;28;21209;-54
2023/04/11 01:02:29;;;;;;;34.80;7.80;;;;;;;11.60;64.17;99819.78;4902795;28;20749;-53
2023/04/11 01:05:00;;;;;;;31.80;7.85;;;;;;;11.71;63.42;99822.13;4902519;28;20049;-55
2023/04/11 01:07:31;;;;;;;39.88;7.75;;;;;;;11.58;63.97;99826.84;4915845;28;20440;-53
2023/04/11 01:10:04;;;;;;;32.95;8.10;;;;;;;11.39;63.59;99820.41;4916492;28;20040;-55
2023/04/11 01:12:36;;;;;;;31.52;8.60;;;;;;;11.28;63.79;99825.03;4924946;28;20059;-54
2023/04/11 01:15:08;;;;;;;43.90;8.40;;;;;;;11.29;63.92;99816.31;4904869;28;20085;-54
2023/04/11 01:17:41;;;;;;;35.67;8.15;;;;;;;11.47;64.46;99823.66;4913891;28;20474;-52
2023/04/11 01:20:13;;;;;;;30.23;6.90;;;;;;;11.60;63.63;99805.84;4915430;28;20123;-52
2023/04/11 01:22:44;;;;;;;31.45;6.45;;;;;;;11.84;62.74;99793.84;4899248;28;20059;-55
2023/04/11 01:25:19;;;;;;;37.95;8.38;;;;;;;11.87;62.98;99775.44;4891742;28;20056;-56
2023/04/11 01:27:50;;;;;;;33.67;7.53;;;;;;;12.08;63.11;99808.88;4918860;28;20059;-52
2023/04/11 01:30:20;;;;;;;28.35;6.82;;;;;;;12.28;62.61;99794.28;4903399;28;20063;-56
2023/04/11 01:32:50;;;;;;;33.42;7.60;;;;;;;11.94;61.63;99753.44;4905293;28;20057;-57
2023/04/11 01:35:21;;;;;;;31.88;6.78;;;;;;;12.05;61.91;99801.06;4903463;28;20060;-56
2023/04/11 01:37:52;;;;;;;35.28;7.68;;;;;;;11.86;62.08;99772.00;4902096;28;20053;-55
2023/04/11 01:40:24;;;;;;;39.78;7.50;;;;;;;12.16;62.55;99794.69;4905408;28;20121;-53
2023/04/11 01:42:56;;;;;;;34.92;7.50;;;;;;;12.35;61.26;99790.56;4903980;28;20060;-55
2023/04/11 01:45:27;;;;;;;31.88;6.53;;;;;;;12.40;61.63;99778.19;4897719;28;20057;-57
2023/04/11 01:47:58;;;;;;;43.85;7.45;;;;;;;12.29;61.08;99769.81;4904203;28;20151;-56
2023/04/11 01:50:29;;;;;;;29.75;6.07;;;;;;;12.37;61.61;99765.19;4904165;28;20068;-53
2023/04/11 01:52:59;;;;;;;32.10;6.93;;;;;;;12.67;61.33;99760.72;4902249;28;20052;-55
2023/04/11 01:55:40;;;;;;;34.95;6.85;;;;;;;12.94;60.63;99753.69;4886692;28;20485;-54
2023/04/11 01:58:33;;;;;;;33.92;7.18;;;;;;;13.09;59.78;99751.47;4890423;28;20072;-57
2023/04/11 02:01:04;;;;;;;32.80;7.07;;;;;;;13.15;58.95;99751.22;4902470;28;20054;-56
2023/04/11 02:03:35;;;;;;;28.75;6.80;;;;;;;12.92;59.75;99755.50;4903158;28;20049;-55
2023/04/11 02:06:06;;;;;;;33.47;7.47;;;;;;;12.88;59.82;99751.28;4900971;28;20060;-55
2023/04/11 02:08:37;;;;;;;34.90;6.97;;;;;;;12.82;60.54;99743.63;4904617;28;20515;-54
2023/04/11 02:11:12;;;;;;;32.63;5.93;;;;;;;12.72;59.91;99731.72;4903566;28;20060;-55
2023/04/11 02:13:43;;;;;;;34.10;6.43;;;;;;;12.94;59.51;99753.69;4902302;28;20391;-53
2023/04/11 02:16:16;;;;;;;22.70;5.57;;;;;;;12.82;59.84;99725.28;4903782;28;20398;-55
2023/04/11 02:18:47;;;;;;;33.08;6.75;;;;;;;13.02;60.13;99736.84;4889499;28;20432;-52
2023/04/11 02:21:18;;;;;;;33.08;6.50;;;;;;;12.82;59.09;99701.66;4895133;28;20045;-54
2023/04/11 02:23:48;;;;;;;29.50;6.38;;;;;;;12.81;59.91;99741.06;4907214;28;20131;-56
2023/04/11 02:26:21;;;;;;;34.55;6.63;;;;;;;12.79;60.01;99754.22;4907715;28;20801;-56
2023/04/11 02:28:51;;;;;;;31.05;6.28;;;;;;;12.64;59.96;99752.13;4907444;28;20056;-54
2023/04/11 02:31:22;;;;;;;33.08;6.20;;;;;;;12.42;60.83;99739.69;4906845;28;20466;-55
2023/04/11 02:33:53;;;;;;;31.08;5.97;;;;;;;12.31;61.35;99749.69;4905181;28;20076;-54
2023/04/11 02:36:23;;;;;;;37.65;5.82;;;;;;;12.09;61.54;99732.00;4906377;28;20063;-54
2023/04/11 02:38:54;;;;;;;31.13;6.43;;;;;;;11.95;61.91;99749.03;4906774;28;20052;-54
2023/04/11 02:41:26;;;;;;;34.45;7.03;;;;;;;11.80;62.81;99752.94;4908318;28;20059;-54
2023/04/11 02:43:57;;;;;;;36.92;6.95;;;;;;;11.64;63.02;99735.06;4899327;28;20058;-55
2023/04/11 02:46:28;;;;;;;27.52;5.70;;;;;;;11.58;63.89;99740.50;4905678;28;20099;-55
2023/04/11 02:48:59;;;;;;;38.65;6.78;;;;;;;11.51;63.76;99727.66;4907034;28;20051;-55
2023/04/11 02:51:29;;;;;;;39.22;5.85;;;;;;;11.35;64.13;99712.34;4907921;28;20344;-53
2023/04/11 02:54:00;;;;;;;35.50;6.70;;;;;;;11.44;64.73;99758.34;4907186;28;20095;-54
2023/04/11 02:56:33;;;;;;;35.25;7.03;;;;;;;11.30;65.31;99755.25;4907749;28;20151;-55
2023/04/11 02:59:04;;;;;;;37.35;7.00;;;;;;;11.18;66.28;99762.53;4908410;28;20055;-55
2023/04/11 03:01:36;;;;;;;37.67;7.55;;;;;;;11.04;65.94;99762.03;4906992;28;20473;-53
2023/04/11 03:04:07;;;;;;;27.70;6.40;;;;;;;10.88;66.63;99743.25;4897078;28;20049;-57
2023/04/11 03:06:40;;;;;;;31.88;6.82;;;;;;;10.94;66.84;99747.50;4907385;28;20052;-58
2023/04/11 03:09:11;;;;;;;36.53;6.30;;;;;;;10.94;67.08;99752.72;4906623;28;20056;-56
2023/04/11 03:11:43;;;;;;;36.72;6.47;;;;;;;10.77;67.79;99735.72;4898107;28;20800;-56
2023/04/11 03:14:16;;;;;;;36.10;6.80;;;;;;;10.82;67.86;99737.34;4908461;28;20508;-57
2023/04/11 03:16:46;;;;;;;29.40;7.10;;;;;;;10.78;68.04;99747.91;4915835;28;20057;-57
2023/04/11 03:19:17;;;;;;;38.55;7.47;;;;;;;10.64;68.34;99760.44;4923404;28;20052;-57
2023/04/11 03:21:47;;;;;;;37.65;7.22;;;;;;;10.55;69.14;99747.59;4911528;28;21042;-57
2023/04/11 03:24:18;;;;;;;32.75;7.28;;;;;;;10.56;69.39;99741.50;4911151;28;20423;-56
2023/04/11 03:26:50;;;;;;;32.97;6.65;;;;;;;10.54;69.78;99738.91;4911504;28;20052;-56
2023/04/11 03:29:20;;;;;;;38.22;6.90;;;;;;;10.61;69.85;99739.63;4911284;28;20044;-57
2023/04/11 03:31:51;;;;;;;42.00;8.00;;;;;;;10.62;69.99;99736.09;4911441;28;20079;-57
2023/04/11 03:34:22;;;;;;;36.10;7.40;;;;;;;10.49;70.37;99729.47;4910870;28;20066;-57
2023/04/11 03:36:52;;;;;;;37.63;8.43;;;;;;;10.46;70.42;99725.19;4911441;28;20580;-57
2023/04/11 03:39:23;;;;;;;30.27;7.85;;;;;;;10.28;69.15;99721.25;4910342;28;20611;-57
2023/04/11 03:41:56;;;;;;;37.67;7.57;;;;;;;10.22;69.46;99721.38;4910902;28;20149;-57
2023/04/11 03:44:27;;;;;;;34.33;7.15;;;;;;;10.15;68.82;99714.56;4904581;28;20049;-57
2023/04/11 03:46:57;;;;;;;37.05;7.20;;;;;;;10.08;69.22;99702.53;4925284;28;20448;-58
2023/04/11 03:49:28;;;;;;;29.65;7.20;;;;;;;10.19;68.67;99726.66;4911250;28;20052;-56
2023/04/11 03:51:59;;;;;;;33.35;8.00;;;;;;;10.23;67.89;99732.66;4909826;28;20060;-57
2023/04/11 03:54:30;;;;;;;28.17;6.35;;;;;;;10.14;67.18;99738.97;4909443;28;20137;-55
2023/04/11 03:57:03;;;;;;;30.73;7.03;;;;;;;10.13;67.29;99716.34;4910022;28;20052;-57
2023/04/11 03:59:34;;;;;;;35.75;7.63;;;;;;;10.14;66.77;99713.72;4910231;28;20044;-57
2023/04/11 04:02:06;;;;;;;38.00;6.57;;;;;;;10.13;66.43;99724.19;4908224;28;20041;-58
2023/04/11 04:04:39;;;;;;;32.65;7.60;;;;;;;10.17;66.33;99715.38;4909552;28;20556;-57
2023/04/11 04:07:10;;;;;;;39.25;7.03;;;;;;;10.31;66.01;99715.13;4909423;28;20051;-57
2023/04/11 04:09:42;;;;;;;27.45;6.47;;;;;;;10.42;65.99;99715.69;4909366;28;20600;-57
2023/04/11 04:12:16;;;;;;;35.95;7.72;;;;;;;10.47;65.47;99700.75;4910044;28;20151;-57
2023/04/11 04:14:48;;;;;;;39.00;7.95;;;;;;;10.35;65.21;99696.69;4901929;28;20060;-58
2023/04/11 04:17:19;;;;;;;32.33;6.53;;;;;;;10.25;65.65;99689.94;4910802;28;20050;-58
2023/04/11 04:19:51;;;;;;;31.48;6.65;;;;;;;10.18;65.97;99692.75;4910515;28;20078;-57
2023/04/11 04:22:22;;;;;;;33.72;6.65;;;;;;;10.07;66.09;99690.41;4910585;28;20059;-57
2023/04/11 04:24:56;;;;;;;30.27;6.80;;;;;;;10.04;66.68;99690.47;4908693;28;20528;-58
2023/04/11 04:27:29;;;;;;;31.13;7.68;;;;;;;10.03;66.44;99691.34;4898833;28;20045;-58
2023/04/11 04:30:01;;;;;;;30.08;6.43;;;;;;;10.07;66.46;99675.59;4910039;28;20506;-58
2023/04/11 04:32:33;;;;;;;27.48;6.82;;;;;;;10.19;66.33;99674.44;4909569;28;20045;-57
2023/04/11 04:35:05;;;;;;;32.28;6.70;;;;;;;10.27;66.00;99662.06;4910398;28;20049;-58
2023/04/11 04:37:38;;;;;;;33.47;6.35;;;;;;;10.29;65.87;99667.28;4906357;28;20060;-57
2023/04/11 04:40:12;;;;;;;34.42;7.50;;;;;;;10.35;66.38;99665.34;4908279;28;20053;-58
2023/04/11 04:42:48;;;;;;;35.05;8.10;;;;;;;10.36;66.41;99667.09;4905100;28;20056;-58
2023/04/11 04:45:19;;;;;;;34.28;6.75;;;;;;;10.35;66.93;99665.34;4907711;28;20056;-58
2023/04/11 04:47:51;;;;;;;34.00;7.10;;;;;;;10.38;66.59;99650.50;4912525;28;20411;-57
2023/04/11 04:50:22;;;;;;;31.77;6.82;;;;;;;10.41;66.15;99659.16;4907718;28;20052;-59
2023/04/11 04:52:53;;;;;;;35.83;7.15;;;;;;;10.32;66.70;99665.44;4909596;28;20048;-58
2023/04/11 04:55:29;;;;;;;26.98;6.65;;;;;;;10.26;66.46;99665.56;4921507;28;20056;-58
2023/04/11 04:58:03;;;;;;;29.83;6.50;;;;;;;9.97;66.56;99641.91;4907560;28;20125;-58
2023/04/11 05:00:35;;;;;;;29.17;7.32;;;;;;;10.02;67.11;99667.00;4911526;28;20175;-58
2023/04/11 05:03:07;;;;;;;34.25;6.78;;;;;;;9.93;67.80;99657.66;4906261;28;20231;-58
2023/04/11 05:05:38;;;;;;;34.20;6.85;;;;;;;9.82;67.97;99659.66;4909508;28;20865;-58
2023/04/11 05:08:10;;;;;;;27.30;7.40;;;;;;;9.68;68.34;99651.25;4909134;28;20399;-58
2023/04/11 05:10:44;;;;;;;26.70;6.82;;;;;;;9.56;68.65;99646.31;4909145;28;20086;-58
2023/04/11 05:13:17;;;;;;;31.20;7.30;;;;;;;9.50;69.04;99640.34;4909278;28;20356;-58
2023/04/11 05:15:53;;;;;;;34.78;7.93;;;;;;;9.41;69.12;99637.97;4898420;28;20185;-58
2023/04/11 05:18:24;;;;;;;37.63;8.20;;;;;;;9.35;69.61;99627.66;4907621;28;20048;-58
2023/04/11 05:20:55;;;;;;;33.10;7.55;;;;;;;9.31;69.49;99626.00;4908889;28;20060;-58
2023/04/11 05:23:26;;;;;;;40.50;8.32;;;;;;;9.30;69.64;99639.94;4905722;28;20487;-59
2023/04/11 05:25:58;;;;;;;29.67;7.82;;;;;;;9.23;69.91;99622.69;4910388;28;20056;-58
2023/04/11 05:28:32;;;;;;;33.55;7.13;;;;;;;9.22;69.81;99629.66;4909284;28;20052;-58
2023/04/11 05:31:03;;;;;;;29.95;7.85;;;;;;;9.24;69.75;99627.88;4908695;28;20059;-59
2023/04/11 05:33:35;;;;;;;33.30;8.30;;;;;;;9.28;69.53;99626.06;4908665;28;20076;-59
2023/04/11 05:36:12;;;;;;;27.52;7.68;;;;;;;9.18;69.25;99629.75;4902039;28;20051;-58
2023/04/11 05:38:44;;;;;;;27.02;7.00;;;;;;;9.19;69.33;99618.44;4908462;28;20450;-59
2023/04/11 05:41:15;;;;;;;29.45;7.15;;;;;;;9.20;69.05;99622.75;4905815;28;20071;-59
2023/04/11 05:43:49;;;;;;;28.90;6.97;;;;;;;9.13;68.37;99621.16;4901796;28;20095;-58
2023/04/11 05:46:20;;;;;;;27.35;6.68;;;;;;;9.03;68.07;99599.66;4908631;28;20071;-59
2023/04/11 05:48:52;;;;;;;31.10;7.75;;;;;;;9.02;68.29;99609.22;4907905;28;20418;-59
2023/04/11 05:51:23;;;;;;;31.80;7.63;;;;;;;9.09;68.42;99603.91;4908215;28;20122;-59
2023/04/11 05:53:54;;;;;;;22.45;6.63;;;;;;;9.01;67.58;99601.41;4908940;28;20114;-58
2023/04/11 05:56:27;;;;;;;26.60;6.50;;;;;;;8.95;67.91;99589.38;4905099;28;20076;-58
2023/04/11 05:59:00;;;;;;;36.78;7.20;;;;;;;8.82;67.33;99601.81;4909205;28;20067;-58
2023/04/11 06:01:32;;;;;;;37.50;8.95;;;;;;;8.71;67.32;99593.38;4908458;28;20052;-58
2023/04/11 06:04:03;;;;;;;27.42;8.48;;;;;;;8.62;67.46;99583.13;4907370;28;20255;-58
2023/04/11 06:06:35;;;;;;;59.28;8.88;;;;;;;8.45;68.16;99565.19;4906625;28;20308;-59
2023/04/11 06:09:09;;;;;;;33.33;8.73;;;;;;;8.45;68.49;99578.22;4903857;28;20197;-59
2023/04/11 06:11:41;;;;;;;29.73;7.38;;;;;;;8.40;68.90;99582.66;4908868;28;20148;-58
2023/04/11 06:14:15;;;;;;;33.53;7.22;;;;;;;8.37;69.21;99578.31;4908431;28;20399;-59
2023/04/11 06:16:46;;;;;;;26.23;6.82;;;;;;;8.31;69.67;99582.78;4907319;28;20118;-59
2023/04/11 06:19:18;;;;;;;26.15;7.40;;;;;;;8.26;70.26;99592.41;4910521;28;20053;-58
2023/04/11 06:21:49;;;;;;;28.63;7.88;;;;;;;8.13;70.59;99590.03;4908022;28;20052;-57
2023/04/11 06:24:36;;;;;;;35.17;8.77;;;;;;;8.04;71.46;99563.28;4907997;28;20052;-57
2023/04/11 06:27:09;;;;;;;25.20;8.68;;;;;;;8.14;72.07;99586.56;4899572;28;20126;-56
2023/04/11 06:29:43;;;;;;;27.65;8.15;;;;;;;8.08;72.24;99581.44;4908370;28;20062;-57
2023/04/11 06:32:14;;;;;;;25.00;8.48;;;;;;;7.96;72.98;99576.44;4907939;28;20049;-57
2023/04/11 06:34:45;;;;;;;30.40;9.63;;;;;;;7.93;73.36;99579.09;4905393;28;20052;-57
2023/04/11 06:37:16;;;;;;;32.00;9.52;;;;;;;7.77;74.43;99575.91;4907129;28;20048;-58
2023/04/11 06:39:46;;;;;;;26.63;8.57;;;;;;;7.65;74.59;99576.94;4902856;28;20051;-56
2023/04/11 06:42:17;;;;;;;30.27;8.55;;;;;;;7.62;75.31;99584.78;4910048;28;20055;-57
2023/04/11 06:44:50;;;;;;;29.52;8.73;;;;;;;7.59;75.82;99581.38;4908226;28;20409;-57
2023/04/11 06:47:20;;;;;;;26.65;7.97;;;;;;;7.53;76.78;99587.53;4907677;28;20133;-57
2023/04/11 06:49:51;;;;;;;31.00;8.23;;;;;;;7.50;77.13;99577.19;4907908;28;20058;-57
2023/04/11 06:52:21;;;;;;;30.67;8.80;;;;;;;7.45;77.54;99584.19;4907626;28;20146;-57
2023/04/11 06:54:53;;;;;;;27.90;9.15;;;;;;;7.43;78.14;99575.53;4907270;28;20060;-57
2023/04/11 06:57:24;;;;;;;38.15;9.70;;;;;;;7.43;78.17;99565.16;4906535;28;20050;-57
2023/04/11 06:59:57;;;;;;;32.30;9.27;;;;;;;7.29;79.25;99567.97;4906485;28;20052;-57
2023/04/11 07:02:27;;;;;;;35.70;9.40;;;;;;;7.16;80.36;99561.19;4898180;28;20050;-57
2023/04/11 07:04:58;;;;;;;32.42;10.23;;;;;;;7.13;81.61;99556.91;4908931;28;20052;-57
2023/04/11 07:07:29;;;;;;;33.70;10.30;;;;;;;7.00;82.24;99544.97;4908111;28;20105;-57
2023/04/11 07:10:00;;;;;;;34.17;10.73;;;;;;;7.00;83.00;99565.75;4907719;28;20045;-57
2023/04/11 07:12:30;;;;;;;31.13;11.00;;;;;;;6.86;84.49;99566.78;4907017;28;20156;-57
2023/04/11 07:15:03;;;;;;;41.25;11.70;;;;;;;6.83;85.58;99568.56;4906778;28;20067;-56
2023/04/11 07:17:33;;;;;;;36.53;11.15;;;;;;;6.80;87.21;99568.59;4907238;28;20068;-57
2023/04/11 07:20:07;;;;;;;39.35;11.23;;;;;;;6.76;87.82;99572.94;4907307;28;20457;-57
2023/04/11 07:22:38;;;;;;;32.75;10.68;;;;;;;6.65;88.49;99564.44;4896937;28;20048;-58
2023/04/11 07:25:10;;;;;;;33.97;10.52;;;;;;;6.71;89.69;99585.13;4907454;28;20048;-57
2023/04/11 07:27:42;;;;;;;41.25;11.75;;;;;;;6.74;89.70;99574.72;4907147;28;20040;-57
2023/04/11 07:30:15;;;;;;;37.67;10.80;;;;;;;6.75;90.38;99576.44;4906559;28;20467;-57
2023/04/11 07:32:46;;;;;;;34.35;11.30;;;;;;;6.65;90.41;99569.63;4904520;28;20124;-57
2023/04/11 07:35:17;;;;;;;29.98;10.95;;;;;;;6.74;91.06;99574.72;4913030;28;20049;-57
2023/04/11 07:37:47;;;;;;;33.25;11.30;;;;;;;6.76;91.16;99567.75;4906911;28;20428;-56
2023/04/11 07:40:18;;;;;;;38.17;13.95;;;;;;;6.67;91.19;99567.88;4906878;28;20191;-57
2023/04/11 07:42:49;;;;;;;45.65;14.95;;;;;;;6.52;91.52;99562.88;4906285;28;20087;-57
2023/04/11 07:45:21;;;;;;;44.83;13.50;;;;;;;6.51;92.46;99567.19;4906981;28;20052;-57
2023/04/11 07:47:52;;;;;;;40.95;15.35;;;;;;;6.47;92.44;99549.94;4906501;28;20056;-57
2023/04/11 07:50:23;;;;;;;41.97;14.10;;;;;;;6.47;93.27;99545.59;4906343;28;20134;-57
2023/04/11 07:52:54;;;;;;;43.70;14.25;;;;;;;6.51;93.26;99541.22;4905657;28;20052;-57
2023/04/11 07:55:25;;;;;;;52.45;15.25;;;;;;;6.54;93.44;99542.94;4906416;28;20479;-57
2023/04/11 07:57:55;;;;;;;63.60;18.58;;;;;;;6.47;93.19;99545.59;4906084;28;20126;-57
2023/04/11 08:00:32;;;;;;;47.47;16.35;;;;;;;6.27;94.17;99511.25;4909995;28;20056;-56
2023/04/11 08:03:07;;;;;;;43.97;17.02;;;;;;;6.45;94.32;99539.56;4910298;28;20051;-58
2023/04/11 08:05:38;;;;;;;49.47;16.95;;;;;;;6.23;94.03;99499.16;4900149;28;20075;-57
2023/04/11 08:08:09;;;;;;;47.65;15.73;;;;;;;6.00;94.33;99458.78;4910480;28;20112;-56
2023/04/11 08:10:45;;;;;;;55.05;19.02;;;;;;;6.50;94.86;99523.09;4909197;28;20048;-57
2023/04/11 08:13:15;;;;;;;54.63;21.67;;;;;;;6.55;94.95;99516.13;4909881;28;20059;-57
2023/04/11 08:15:47;;;;;;;62.58;23.63;;;;;;;6.41;95.00;99491.16;4908521;28;21118;-57
2023/04/11 08:18:20;;;;;;;57.28;20.23;;;;;;;6.52;94.64;99505.78;4910462;28;20049;-56
2023/04/11 08:20:50;;;;;;;52.13;19.40;;;;;;;6.51;94.71;99504.88;4909887;28;20052;-57
2023/04/11 08:23:22;;;;;;;42.15;17.48;;;;;;;6.28;94.62;99471.44;4910340;28;20049;-57
2023/04/11 08:25:52;;;;;;;44.33;16.73;;;;;;;6.19;94.47;99479.31;4909670;28;20037;-57
2023/04/11 08:28:23;;;;;;;43.35;16.00;;;;;;;6.39;94.71;99505.91;4909195;28;20402;-56
2023/04/11 08:30:57;;;;;;;46.42;14.95;;;;;;;6.41;94.75;99509.31;4909542;28;20062;-57
2023/04/11 08:33:27;;;;;;;43.45;15.52;;;;;;;6.33;94.73;99505.97;4900121;28;20121;-57
2023/04/11 08:35:58;;;;;;;39.42;13.95;;;;;;;6.26;95.15;99499.13;4910363;28;20060;-57
2023/04/11 08:38:29;;;;;;;51.22;14.88;;;;;;;6.35;95.10;99504.22;4910335;28;20063;-57
2023/04/11 08:40:59;;;;;;;36.33;13.27;;;;;;;6.28;94.59;99497.38;4910461;28;20479;-57
2023/04/11 08:43:30;;;;;;;34.83;13.15;;;;;;;6.20;94.53;99479.31;4911067;28;20096;-57
2023/04/11 08:46:04;;;;;;;42.58;14.68;;;;;;;6.34;94.43;99496.44;4909285;28;20048;-56
2023/04/11 08:48:35;;;;;;;38.70;14.40;;;;;;;5.89;94.12;99428.59;4909135;28;20052;-59
2023/04/11 08:51:06;;;;;;;34.70;14.38;;;;;;;6.29;94.38;99488.75;4907734;28;20050;-57
2023/04/11 08:53:38;;;;;;;47.42;15.55;;;;;;;6.27;94.39;99480.09;4915745;28;20050;-60
2023/04/11 08:56:16;;;;;;;43.50;15.32;;;;;;;6.27;93.91;99485.28;4909921;28;20052;-59
2023/04/11 08:58:47;;;;;;;45.60;14.40;;;;;;;6.37;93.54;99492.09;4902136;28;20053;-57
2023/04/11 09:01:30;;;;;;;39.63;15.40;;;;;;;6.30;92.84;99480.06;4909166;28;20079;-57
2023/04/11 09:04:03;;;;;;;50.88;16.02;;;;;;;6.33;92.89;99497.34;4898157;28;20368;-57
2023/04/11 09:06:35;;;;;;;57.53;16.02;;;;;;;6.24;92.51;99482.72;4908245;28;20313;-57
2023/04/11 09:09:28;;;;;;;49.35;14.25;;;;;;;6.33;92.57;99500.78;4902915;28;20053;-57
2023/04/11 09:11:59;;;;;;;52.28;16.45;;;;;;;6.41;92.14;99504.13;4898137;28;20045;-57
2023/04/11 09:14:32;;;;;;;48.40;15.38;;;;;;;6.35;92.56;99483.47;4908435;28;20060;-57
2023/04/11 09:17:12;;;;;;;44.97;15.77;;;;;;;6.25;91.45;99477.53;4908184;28;20837;-57
2023/04/11 09:19:47;;;;;;;38.58;15.10;;;;;;;6.38;91.73;99509.38;4897248;28;20056;-56
2023/04/11 09:22:20;;;;;;;39.08;15.05;;;;;;;6.38;92.04;99493.81;4898707;28;20147;-57
2023/04/11 09:25:05;;;;;;;41.90;14.48;;;;;;;6.40;91.63;99492.06;4907898;28;20049;-57
2023/04/11 09:27:45;;;;;;;46.95;14.13;;;;;;;6.39;91.39;99477.38;4896447;28;20053;-57
2023/04/11 09:30:25;;;;;;;46.90;14.77;;;;;;;6.25;91.11;99461.09;4897959;28;20517;-57
2023/04/11 09:32:57;;;;;;;46.22;13.93;;;;;;;6.43;91.41;99492.00;4906304;28;20053;-56
2023/04/11 09:35:39;;;;;;;50.33;14.50;;;;;;;6.18;91.42;99455.13;4908397;28;20094;-57
2023/04/11 09:38:10;;;;;;;61.95;23.55;;;;;;;6.36;91.56;99499.88;4898810;28;20498;-57
2023/04/11 09:40:43;;;;;;;36.72;14.75;;;;;;;6.45;92.23;99513.63;4909144;28;20715;-57
2023/04/11 09:43:17;;;;;;;38.58;13.32;;;;;;;6.54;92.26;99511.78;4903049;28;20052;-57
2023/04/11 09:45:50;;;;;;;44.40;15.60;;;;;;;6.63;92.17;99516.88;4908342;28;20060;-57
2023/04/11 09:48:29;;;;;;;41.88;13.95;;;;;;;6.68;91.82;99517.66;4908452;28;20113;-56
2023/04/11 09:51:23;;;;;;;39.25;14.73;;;;;;;6.57;92.09;99511.78;4896290;28;20076;-57
2023/04/11 09:54:06;;;;;;;46.38;14.52;;;;;;;6.56;91.56;99528.19;4897782;28;20149;-57
2023/04/11 09:56:37;;;;;;;36.13;14.10;;;;;;;6.43;91.91;99528.34;4903608;28;20049;-57
2023/04/11 09:59:08;;;;;;;37.17;12.52;;;;;;;6.43;92.58;99538.72;4910162;28;20061;-57
2023/04/11 10:01:40;;;;;;;39.70;12.80;;;;;;;6.38;92.53;99537.06;4908405;28;20053;-57
2023/04/11 10:04:13;;;;;;;33.05;12.20;;;;;;;6.34;92.60;99537.97;4907888;28;20575;-57
2023/04/11 10:06:56;;;;;;;31.02;11.55;;;;;;;6.26;92.67;99530.25;4908433;28;20052;-57
2023/04/11 10:09:27;;;;;;;40.63;11.98;;;;;;;6.20;92.56;99519.97;4902607;28;20062;-57
2023/04/11 10:11:58;;;;;;;30.33;10.75;;;;;;;6.11;92.68;99514.84;4908323;28;20056;-57
2023/04/11 10:14:46;;;;;;;31.33;10.68;;;;;;;6.21;92.86;99532.91;4907837;28;20048;-57
2023/04/11 10:17:17;;;;;;;39.50;11.55;;;;;;;6.17;92.96;99522.59;4893701;28;20140;-57
2023/04/11 10:19:56;;;;;;;40.10;12.25;;;;;;;6.12;92.90;99524.38;4907469;28;20076;-57
2023/04/11 10:23:00;;;;;;;39.00;12.18;;;;;;;6.07;93.02;99520.97;4900841;28;20045;-57
2023/04/11 10:25:32;;;;;;;38.70;11.65;;;;;;;6.03;93.41;99518.38;4898221;28;20052;-57
2023/04/11 10:28:05;;;;;;;37.42;12.07;;;;;;;6.11;93.42;99522.63;4907350;28;20056;-57
2023/04/11 10:31:01;;;;;;;35.20;11.80;;;;;;;6.08;92.78;99525.28;4906317;28;20049;-57
2023/04/11 10:33:40;;;;;;;42.58;12.57;;;;;;;5.98;92.64;99522.75;4897104;28;20168;-57
2023/04/11 10:36:16;;;;;;;36.55;13.32;;;;;;;6.05;92.48;99526.16;4896362;28;20044;-60
2023/04/11 10:38:52;;;;;;;35.47;13.15;;;;;;;5.99;92.86;99505.47;4897555;28;20044;-59
2023/04/11 10:41:30;;;;;;;34.33;12.15;;;;;;;6.00;92.92;99500.28;4908046;28;20053;-57
2023/04/11 10:44:14;;;;;;;38.97;12.95;;;;;;;5.99;92.78;99498.56;4890740;28;20045;-57
2023/04/11 10:46:50;;;;;;;43.95;12.73;;;;;;;5.96;92.43;99493.38;4907988;28;20131;-57
2023/04/11 10:49:41;;;;;;;37.90;13.23;;;;;;;6.10;92.61;99500.19;4897235;28;20062;-57
2023/04/11 10:52:24;;;;;;;37.80;12.10;;;;;;;6.02;92.62;99488.16;4895159;28;20792;-58
2023/04/11 10:54:55;;;;;;;36.70;12.45;;;;;;;6.01;92.38;99486.41;4907158;28;20048;-57
2023/04/11 10:57:51;;;;;;;38.20;12.98;;;;;;;5.94;92.53;99482.19;4904530;28;20041;-56
2023/04/11 11:00:22;;;;;;;36.38;14.85;;;;;;;5.90;92.67;99470.09;4895709;28;20067;-57
2023/04/11 11:02:52;;;;;;;42.75;14.77;;;;;;;5.91;93.07;99451.06;4905478;28;20070;-57
2023/04/11 11:05:25;;;;;;;48.05;15.02;;;;;;;5.88;92.81;99440.72;4906419;28;20126;-57
2023/04/11 11:07:57;;;;;;;41.70;15.10;;;;;;;5.89;92.94;99463.19;4905158;28;20057;-57
2023/04/11 11:10:45;;;;;;;32.83;13.93;;;;;;;5.67;92.87;99412.44;4906095;28;20069;-57
2023/04/11 11:13:16;;;;;;;40.40;15.77;;;;;;;5.90;92.38;99449.34;4893210;28;20064;-57
2023/04/11 11:15:51;;;;;;;43.15;14.40;;;;;;;5.82;93.04;99430.44;4908335;28;20061;-54
2023/04/11 11:18:22;;;;;;;45.83;14.65;;;;;;;5.84;92.67;99433.84;4905661;28;20110;-53
2023/04/11 11:20:59;;;;;;;35.42;13.75;;;;;;;5.94;93.17;99439.81;4905890;28;20094;-55
2023/04/11 11:23:31;;;;;;;47.83;14.80;;;;;;;5.91;92.96;99412.16;4895956;28;20056;-55
2023/04/11 11:26:03;;;;;;;44.92;14.20;;;;;;;5.94;92.85;99419.06;4906455;28;20057;-54
2023/04/11 11:28:47;;;;;;;40.05;13.93;;;;;;;6.00;93.22;99417.28;4903600;28;20468;-55
2023/04/11 11:31:20;;;;;;;36.10;13.35;;;;;;;5.98;93.11;99400.88;4895745;28;20045;-57
2023/04/11 11:33:53;;;;;;;45.03;13.52;;;;;;;5.96;92.67;99397.44;4908285;28;20453;-57
2023/04/11 11:36:45;;;;;;;43.42;15.35;;;;;;;5.81;92.80;99388.06;4898505;28;20417;-57
2023/04/11 11:39:18;;;;;;;33.20;13.07;;;;;;;5.96;93.11;99407.81;4907170;28;20132;-57
2023/04/11 11:41:52;;;;;;;36.78;12.07;;;;;;;5.83;93.34;99380.28;4909438;28;20053;-57
2023/04/11 11:44:24;;;;;;;35.20;13.75;;;;;;;6.01;93.61;99397.38;4909700;28;20372;-57
2023/04/11 11:47:04;;;;;;;35.42;11.93;;;;;;;6.09;93.14;99387.81;4909366;28;20083;-57
2023/04/11 11:49:47;;;;;;;33.35;12.73;;;;;;;5.56;93.03;99299.38;4898606;28;20052;-57
2023/04/11 11:52:33;;;;;;;30.70;13.00;;;;;;;6.13;92.33;99367.88;4899180;28;20655;-57
2023/04/11 11:55:08;;;;;;;45.75;14.27;;;;;;;6.20;91.72;99374.69;4899545;28;20430;-57